DLH26S ELLX-EDDF
Flight info
| Callsign | DLH26S |
|---|---|
| Flight time | 0h 29m |
| Altitude | 23000 |
| Route | ASMOX Y891 LULAT Y890 KULZO T847 IMCOM IMCOM1A |
| Aircraft | A319/M-SDE3FGHIRWY/LB1 |
Departure
| Time | 2026-05-07 08:34 |
|---|---|
| Airport | Luxembourg-Findel International Airport (ELLX) |
Arrival
| Time | 2026-05-07 09:03 |
|---|---|
| Airport | Frankfurt Main Airport (EDDF) |
| Time | Latitude | Longitude | Altitude | Speed | Heading |
|---|---|---|---|---|---|
| 2026-05-07 08:06 | 49.63353 | 6.21682 | 1230 ft | 0 kts | 330° |
| 2026-05-07 08:23 | 49.63339 | 6.21695 | 1230 ft | 2 kts | 328° |
| 2026-05-07 08:23 | 49.63325 | 6.21707 | 1230 ft | 2 kts | 329° |
| 2026-05-07 08:23 | 49.63311 | 6.21721 | 1230 ft | 2 kts | 319° |
| 2026-05-07 08:23 | 49.63302 | 6.21741 | 1230 ft | 2 kts | 236° |
| 2026-05-07 08:24 | 49.63306 | 6.21750 | 1230 ft | 0 kts | 234° |
| 2026-05-07 08:25 | 49.63305 | 6.21748 | 1230 ft | 1 kts | 234° |
| 2026-05-07 08:26 | 49.63288 | 6.21705 | 1230 ft | 6 kts | 240° |
| 2026-05-07 08:26 | 49.63251 | 6.21678 | 1230 ft | 8 kts | 165° |
| 2026-05-07 08:26 | 49.63191 | 6.21732 | 1228 ft | 13 kts | 149° |
| 2026-05-07 08:27 | 49.63134 | 6.21770 | 1227 ft | 7 kts | 172° |
| 2026-05-07 08:27 | 49.63091 | 6.21692 | 1225 ft | 12 kts | 244° |
| 2026-05-07 08:27 | 49.63050 | 6.21559 | 1226 ft | 15 kts | 243° |
| 2026-05-07 08:27 | 49.63003 | 6.21408 | 1228 ft | 16 kts | 244° |
| 2026-05-07 08:28 | 49.62954 | 6.21250 | 1232 ft | 16 kts | 243° |
| 2026-05-07 08:28 | 49.62902 | 6.21086 | 1233 ft | 18 kts | 245° |
| 2026-05-07 08:28 | 49.62846 | 6.20901 | 1244 ft | 19 kts | 244° |
| 2026-05-07 08:28 | 49.62826 | 6.20836 | 1246 ft | 1 kts | 245° |
| 2026-05-07 08:29 | 49.62821 | 6.20821 | 1239 ft | 3 kts | 245° |
| 2026-05-07 08:29 | 49.62807 | 6.20778 | 1239 ft | 6 kts | 238° |
| 2026-05-07 08:29 | 49.62773 | 6.20716 | 1245 ft | 9 kts | 227° |
| 2026-05-07 08:29 | 49.62719 | 6.20646 | 1247 ft | 11 kts | 216° |
| 2026-05-07 08:30 | 49.62651 | 6.20559 | 1246 ft | 14 kts | 226° |
| 2026-05-07 08:30 | 49.62572 | 6.20423 | 1241 ft | 20 kts | 228° |
| 2026-05-07 08:30 | 49.62476 | 6.20223 | 1224 ft | 27 kts | 238° |
| 2026-05-07 08:30 | 49.62369 | 6.19935 | 1207 ft | 35 kts | 240° |
| 2026-05-07 08:31 | 49.62244 | 6.19601 | 1188 ft | 31 kts | 240° |
| 2026-05-07 08:31 | 49.62141 | 6.19326 | 1175 ft | 26 kts | 240° |
| 2026-05-07 08:31 | 49.62039 | 6.19052 | 1165 ft | 32 kts | 240° |
| 2026-05-07 08:31 | 49.61957 | 6.18835 | 1157 ft | 12 kts | 234° |
| 2026-05-07 08:32 | 49.61886 | 6.18743 | 1157 ft | 15 kts | 218° |
| 2026-05-07 08:32 | 49.61799 | 6.18735 | 1158 ft | 15 kts | 150° |
| 2026-05-07 08:32 | 49.61764 | 6.18767 | 1159 ft | 3 kts | 140° |
| 2026-05-07 08:32 | 49.61764 | 6.18779 | 1160 ft | 0 kts | 74° |
| 2026-05-07 08:33 | 49.61766 | 6.18785 | 1159 ft | 8 kts | 72° |
| 2026-05-07 08:33 | 49.61934 | 6.19236 | 1167 ft | 86 kts | 59° |
| 2026-05-07 08:33 | 49.62337 | 6.20315 | 1226 ft | 143 kts | 60° |
| 2026-05-07 08:33 | 49.62899 | 6.21811 | 1317 ft | 179 kts | 58° |
| 2026-05-07 08:34 | 49.63463 | 6.23406 | 2246 ft | 164 kts | 62° |
| 2026-05-07 08:34 | 49.63958 | 6.24954 | 3022 ft | 162 kts | 63° |
| 2026-05-07 08:34 | 49.64476 | 6.26557 | 3597 ft | 173 kts | 61° |
| 2026-05-07 08:34 | 49.65075 | 6.28236 | 4125 ft | 185 kts | 59° |
| 2026-05-07 08:35 | 49.65746 | 6.30064 | 4444 ft | 210 kts | 59° |
| 2026-05-07 08:35 | 49.66550 | 6.32201 | 4627 ft | 248 kts | 58° |
| 2026-05-07 08:35 | 49.67473 | 6.34580 | 5324 ft | 262 kts | 57° |
| 2026-05-07 08:35 | 49.68453 | 6.36979 | 6250 ft | 268 kts | 53° |
| 2026-05-07 08:36 | 49.69821 | 6.38948 | 7097 ft | 275 kts | 29° |
| 2026-05-07 08:36 | 49.71662 | 6.39703 | 7945 ft | 280 kts | 357° |
| 2026-05-07 08:36 | 49.73509 | 6.38817 | 8880 ft | 282 kts | 330° |
| 2026-05-07 08:36 | 49.75214 | 6.37307 | 9886 ft | 283 kts | 329° |
| 2026-05-07 08:37 | 49.76969 | 6.35762 | 10432 ft | 301 kts | 329° |
| 2026-05-07 08:37 | 49.78830 | 6.34117 | 10726 ft | 324 kts | 329° |
| 2026-05-07 08:37 | 49.80886 | 6.32394 | 11013 ft | 347 kts | 334° |
| 2026-05-07 08:37 | 49.83152 | 6.30953 | 11626 ft | 355 kts | 339° |
| 2026-05-07 08:38 | 49.85519 | 6.29723 | 12392 ft | 360 kts | 342° |
| 2026-05-07 08:38 | 49.87961 | 6.28994 | 13127 ft | 366 kts | 355° |
| 2026-05-07 08:38 | 49.90527 | 6.29088 | 13884 ft | 372 kts | 6° |
| 2026-05-07 08:38 | 49.93077 | 6.29889 | 14553 ft | 377 kts | 15° |
| 2026-05-07 08:39 | 49.95526 | 6.31394 | 15220 ft | 382 kts | 23° |
| 2026-05-07 08:39 | 49.97958 | 6.33104 | 15887 ft | 385 kts | 23° |
| 2026-05-07 08:39 | 50.00412 | 6.34841 | 16557 ft | 389 kts | 23° |
| 2026-05-07 08:39 | 50.02886 | 6.36609 | 17217 ft | 393 kts | 24° |
| 2026-05-07 08:40 | 50.05384 | 6.38405 | 17891 ft | 396 kts | 24° |
| 2026-05-07 08:40 | 50.07877 | 6.40313 | 18516 ft | 400 kts | 29° |
| 2026-05-07 08:40 | 50.10178 | 6.42798 | 19070 ft | 405 kts | 38° |
| 2026-05-07 08:40 | 50.12340 | 6.45636 | 19644 ft | 408 kts | 39° |
| 2026-05-07 08:41 | 50.14515 | 6.48494 | 20191 ft | 411 kts | 38° |
| 2026-05-07 08:41 | 50.16712 | 6.51384 | 20744 ft | 414 kts | 38° |
| 2026-05-07 08:41 | 50.18911 | 6.54276 | 21273 ft | 416 kts | 38° |
| 2026-05-07 08:41 | 50.21135 | 6.57200 | 21799 ft | 419 kts | 39° |
| 2026-05-07 08:42 | 50.23375 | 6.60145 | 22307 ft | 422 kts | 38° |
| 2026-05-07 08:42 | 50.25628 | 6.63119 | 22793 ft | 425 kts | 39° |
| 2026-05-07 08:42 | 50.27702 | 6.66367 | 22976 ft | 430 kts | 49° |
| 2026-05-07 08:42 | 50.29418 | 6.70287 | 23003 ft | 445 kts | 60° |
| 2026-05-07 08:43 | 50.30693 | 6.74759 | 23004 ft | 454 kts | 70° |
| 2026-05-07 08:43 | 50.31482 | 6.79566 | 23003 ft | 458 kts | 79° |
| 2026-05-07 08:43 | 50.31764 | 6.84511 | 23007 ft | 459 kts | 89° |
| 2026-05-07 08:43 | 50.31594 | 6.89522 | 22842 ft | 465 kts | 96° |
| 2026-05-07 08:44 | 50.30943 | 6.94488 | 22570 ft | 465 kts | 106° |
| 2026-05-07 08:44 | 50.29775 | 6.99200 | 22235 ft | 464 kts | 114° |
| 2026-05-07 08:44 | 50.28421 | 7.03759 | 21425 ft | 460 kts | 115° |
| 2026-05-07 08:44 | 50.27064 | 7.08268 | 20890 ft | 457 kts | 114° |
| 2026-05-07 08:45 | 50.25713 | 7.12737 | 20298 ft | 452 kts | 115° |
| 2026-05-07 08:45 | 50.24383 | 7.17143 | 19710 ft | 448 kts | 114° |
| 2026-05-07 08:45 | 50.23058 | 7.21547 | 19128 ft | 446 kts | 114° |
| 2026-05-07 08:45 | 50.21746 | 7.25901 | 18549 ft | 442 kts | 115° |
| 2026-05-07 08:46 | 50.20884 | 7.28760 | 18148 ft | 438 kts | 115° |
| 2026-05-07 08:46 | 50.19600 | 7.33046 | 17559 ft | 435 kts | 113° |
| 2026-05-07 08:46 | 50.18418 | 7.37370 | 16988 ft | 433 kts | 111° |
| 2026-05-07 08:46 | 50.17280 | 7.41699 | 16410 ft | 430 kts | 111° |
| 2026-05-07 08:47 | 50.16479 | 7.46156 | 15849 ft | 424 kts | 97° |
| 2026-05-07 08:47 | 50.16443 | 7.50711 | 15290 ft | 418 kts | 83° |
| 2026-05-07 08:47 | 50.16685 | 7.55214 | 14745 ft | 415 kts | 83° |
| 2026-05-07 08:47 | 50.16938 | 7.59675 | 14209 ft | 412 kts | 83° |
| 2026-05-07 08:48 | 50.17193 | 7.64110 | 13674 ft | 409 kts | 83° |
| 2026-05-07 08:48 | 50.17445 | 7.68513 | 13075 ft | 405 kts | 84° |
| 2026-05-07 08:48 | 50.17690 | 7.72879 | 12501 ft | 401 kts | 83° |
| 2026-05-07 08:48 | 50.17929 | 7.77201 | 11931 ft | 398 kts | 83° |
| 2026-05-07 08:49 | 50.18167 | 7.81481 | 11379 ft | 394 kts | 84° |
| 2026-05-07 08:49 | 50.18401 | 7.85728 | 11065 ft | 391 kts | 83° |
| 2026-05-07 08:49 | 50.18631 | 7.89946 | 11002 ft | 390 kts | 83° |
| 2026-05-07 08:49 | 50.18858 | 7.94158 | 11018 ft | 390 kts | 84° |
| 2026-05-07 08:50 | 50.19082 | 7.98388 | 10777 ft | 389 kts | 83° |
| 2026-05-07 08:50 | 50.19299 | 8.02537 | 10461 ft | 387 kts | 84° |
| 2026-05-07 08:50 | 50.19514 | 8.06709 | 10143 ft | 385 kts | 84° |
| 2026-05-07 08:50 | 50.19726 | 8.10838 | 9821 ft | 375 kts | 83° |
| 2026-05-07 08:51 | 50.19929 | 8.14812 | 9470 ft | 359 kts | 84° |
| 2026-05-07 08:51 | 50.20122 | 8.18620 | 9115 ft | 335 kts | 83° |
| 2026-05-07 08:51 | 50.20295 | 8.22064 | 9000 ft | 309 kts | 83° |
| 2026-05-07 08:51 | 50.20455 | 8.25276 | 9014 ft | 290 kts | 83° |
| 2026-05-07 08:52 | 50.20614 | 8.28388 | 9024 ft | 286 kts | 83° |
| 2026-05-07 08:52 | 50.20768 | 8.31456 | 9017 ft | 287 kts | 83° |
| 2026-05-07 08:52 | 50.20924 | 8.34579 | 8744 ft | 288 kts | 83° |
| 2026-05-07 08:52 | 50.21076 | 8.37677 | 8380 ft | 285 kts | 83° |
| 2026-05-07 08:53 | 50.21229 | 8.40767 | 8017 ft | 283 kts | 83° |
| 2026-05-07 08:53 | 50.21378 | 8.43783 | 7656 ft | 281 kts | 83° |
| 2026-05-07 08:53 | 50.21527 | 8.46852 | 7300 ft | 280 kts | 83° |
| 2026-05-07 08:53 | 50.21673 | 8.49872 | 6946 ft | 278 kts | 83° |
| 2026-05-07 08:54 | 50.21820 | 8.52879 | 6599 ft | 276 kts | 83° |
| 2026-05-07 08:54 | 50.21960 | 8.55813 | 6251 ft | 275 kts | 84° |
| 2026-05-07 08:54 | 50.22101 | 8.58778 | 5884 ft | 272 kts | 83° |
| 2026-05-07 08:54 | 50.22238 | 8.61688 | 5521 ft | 268 kts | 83° |
| 2026-05-07 08:55 | 50.22374 | 8.64622 | 5156 ft | 264 kts | 84° |
| 2026-05-07 08:55 | 50.22503 | 8.67433 | 4800 ft | 261 kts | 83° |
| 2026-05-07 08:55 | 50.22630 | 8.70221 | 4598 ft | 250 kts | 83° |
| 2026-05-07 08:55 | 50.22749 | 8.72849 | 4576 ft | 237 kts | 83° |
| 2026-05-07 08:56 | 50.22867 | 8.75419 | 4336 ft | 236 kts | 83° |
| 2026-05-07 08:56 | 50.22985 | 8.77957 | 4094 ft | 233 kts | 83° |
| 2026-05-07 08:56 | 50.23105 | 8.80488 | 4002 ft | 232 kts | 83° |
| 2026-05-07 08:56 | 50.23091 | 8.82995 | 4002 ft | 235 kts | 102° |
| 2026-05-07 08:57 | 50.22306 | 8.85232 | 4005 ft | 240 kts | 134° |
| 2026-05-07 08:57 | 50.20914 | 8.86679 | 4021 ft | 242 kts | 152° |
| 2026-05-07 08:57 | 50.19411 | 8.87850 | 4019 ft | 242 kts | 154° |
| 2026-05-07 08:57 | 50.17902 | 8.89001 | 4018 ft | 241 kts | 154° |
| 2026-05-07 08:58 | 50.16398 | 8.90144 | 4023 ft | 240 kts | 154° |
| 2026-05-07 08:58 | 50.14837 | 8.91057 | 4014 ft | 241 kts | 173° |
| 2026-05-07 08:58 | 50.13183 | 8.90793 | 4021 ft | 240 kts | 201° |
| 2026-05-07 08:58 | 50.11766 | 8.89497 | 4022 ft | 233 kts | 226° |
| 2026-05-07 08:59 | 50.10854 | 8.87556 | 4021 ft | 215 kts | 249° |
| 2026-05-07 08:59 | 50.10331 | 8.85397 | 3966 ft | 213 kts | 253° |
| 2026-05-07 08:59 | 50.09830 | 8.83260 | 3740 ft | 212 kts | 253° |
| 2026-05-07 08:59 | 50.09323 | 8.81106 | 3468 ft | 212 kts | 253° |
| 2026-05-07 09:00 | 50.08817 | 8.78958 | 3184 ft | 212 kts | 254° |
| 2026-05-07 09:00 | 50.08309 | 8.76806 | 2879 ft | 211 kts | 253° |
| 2026-05-07 09:00 | 50.07809 | 8.74693 | 2593 ft | 204 kts | 253° |
| 2026-05-07 09:00 | 50.07323 | 8.72637 | 2326 ft | 200 kts | 253° |
| 2026-05-07 09:01 | 50.06855 | 8.70664 | 2067 ft | 189 kts | 253° |
| 2026-05-07 09:01 | 50.06415 | 8.68810 | 1808 ft | 175 kts | 253° |
| 2026-05-07 09:01 | 50.06011 | 8.67109 | 1571 ft | 163 kts | 252° |
| 2026-05-07 09:01 | 50.05633 | 8.65519 | 1352 ft | 151 kts | 253° |
| 2026-05-07 09:02 | 50.05286 | 8.64057 | 1163 ft | 137 kts | 253° |
| 2026-05-07 09:02 | 50.04967 | 8.62705 | 966 ft | 131 kts | 253° |
| 2026-05-07 09:02 | 50.04660 | 8.61393 | 786 ft | 128 kts | 252° |
| 2026-05-07 09:02 | 50.04348 | 8.60111 | 632 ft | 127 kts | 253° |
| 2026-05-07 09:03 | 50.04050 | 8.58864 | 430 ft | 124 kts | 249° |
| 2026-05-07 09:03 | 50.03758 | 8.57646 | 370 ft | 108 kts | 250° |
| 2026-05-07 09:03 | 50.03555 | 8.56768 | 360 ft | 62 kts | 249° |
| 2026-05-07 09:03 | 50.03444 | 8.56299 | 362 ft | 32 kts | 250° |
| 2026-05-07 09:04 | 50.03437 | 8.56050 | 366 ft | 23 kts | 280° |
| 2026-05-07 09:04 | 50.03464 | 8.55835 | 368 ft | 7 kts | 282° |
| 2026-05-07 09:04 | 50.03464 | 8.55833 | 368 ft | 0 kts | 282° |
| 2026-05-07 09:04 | 50.03465 | 8.55828 | 367 ft | 2 kts | 282° |
| 2026-05-07 09:05 | 50.03468 | 8.55792 | 364 ft | 5 kts | 278° |
| 2026-05-07 09:05 | 50.03474 | 8.55722 | 362 ft | 8 kts | 276° |
| 2026-05-07 09:05 | 50.03486 | 8.55614 | 362 ft | 12 kts | 280° |
| 2026-05-07 09:05 | 50.03488 | 8.55464 | 362 ft | 16 kts | 260° |
| 2026-05-07 09:06 | 50.03447 | 8.55283 | 368 ft | 20 kts | 250° |
| 2026-05-07 09:06 | 50.03395 | 8.55068 | 362 ft | 23 kts | 250° |
| 2026-05-07 09:06 | 50.03337 | 8.54820 | 362 ft | 26 kts | 250° |
| 2026-05-07 09:06 | 50.03276 | 8.54565 | 367 ft | 9 kts | 256° |
| 2026-05-07 09:07 | 50.03305 | 8.54485 | 362 ft | 9 kts | 332° |
| 2026-05-07 09:07 | 50.03336 | 8.54467 | 364 ft | 0 kts | 340° |
| 2026-05-07 09:08 | 50.03338 | 8.54465 | 362 ft | 1 kts | 340° |
| 2026-05-07 09:09 | 50.03366 | 8.54450 | 363 ft | 7 kts | 340° |
| 2026-05-07 09:09 | 50.03439 | 8.54410 | 362 ft | 15 kts | 340° |
| 2026-05-07 09:09 | 50.03548 | 8.54344 | 359 ft | 17 kts | 341° |
| 2026-05-07 09:09 | 50.03624 | 8.54311 | 366 ft | 11 kts | 3° |
| 2026-05-07 09:10 | 50.03673 | 8.54376 | 363 ft | 11 kts | 70° |
| 2026-05-07 09:10 | 50.03702 | 8.54504 | 364 ft | 15 kts | 70° |
| 2026-05-07 09:10 | 50.03742 | 8.54671 | 369 ft | 18 kts | 70° |
| 2026-05-07 09:10 | 50.03790 | 8.54871 | 364 ft | 22 kts | 69° |
| 2026-05-07 09:11 | 50.03847 | 8.55107 | 364 ft | 25 kts | 70° |
| 2026-05-07 09:11 | 50.03906 | 8.55355 | 363 ft | 21 kts | 70° |
| 2026-05-07 09:11 | 50.03960 | 8.55581 | 366 ft | 24 kts | 68° |
| 2026-05-07 09:11 | 50.03999 | 8.55743 | 369 ft | 17 kts | 69° |
| 2026-05-07 09:12 | 50.04030 | 8.55878 | 366 ft | 8 kts | 70° |
| 2026-05-07 09:12 | 50.04055 | 8.55976 | 367 ft | 12 kts | 69° |
| 2026-05-07 09:12 | 50.04087 | 8.56115 | 364 ft | 16 kts | 71° |
| 2026-05-07 09:12 | 50.04129 | 8.56294 | 365 ft | 19 kts | 69° |
| 2026-05-07 09:13 | 50.04179 | 8.56500 | 363 ft | 22 kts | 70° |
| 2026-05-07 09:13 | 50.04203 | 8.56601 | 365 ft | 3 kts | 70° |
| 2026-05-07 09:13 | 50.04214 | 8.56649 | 366 ft | 7 kts | 70° |
| 2026-05-07 09:13 | 50.04236 | 8.56736 | 366 ft | 10 kts | 68° |
| 2026-05-07 09:14 | 50.04295 | 8.56811 | 366 ft | 13 kts | 13° |
| 2026-05-07 09:14 | 50.04396 | 8.56839 | 364 ft | 17 kts | 7° |
| 2026-05-07 09:14 | 50.04519 | 8.56881 | 364 ft | 20 kts | 13° |
| 2026-05-07 09:14 | 50.04574 | 8.56900 | 368 ft | 0 kts | 11° |
| 2026-05-07 09:15 | 50.04583 | 8.56895 | 367 ft | 2 kts | 328° |
| 2026-05-07 09:15 | 50.04588 | 8.56853 | 364 ft | 6 kts | 274° |
| 2026-05-07 09:15 | 50.04607 | 8.56774 | 365 ft | 2 kts | 296° |
| 2026-05-07 09:16 | 50.04610 | 8.56764 | 365 ft | 0 kts | 294° |
| 2026-05-07 09:19 | 50.03250 | 8.57899 | 369 ft | 0 kts | 70° |